Mentone, Indiana
Current Conditions -  °F | °C
As of 9:55 AM on Monday 22 Dec 2014 (Local Time) from KRCR Reporting Station
Haze Haze  
Wind Chill: 27°   Ceiling: Unl
Heat Index: 34°   Visibility: 5mi
Dew Point: 30°   Wind: 8mph
Humidity: 87%   Direction: 110°ESE
Pressure: 29.95"   Gusts: NA
Location:  41.17°N, 86.03°W
Report Text: KRCR 221455Z AUTO 11007KT 5SM BR SCT050 SCT095 01/M01 A2995 RMK AO2
Loading
Personal Weather Stations






























Interactive Weather Map New forecast layout! Learn more

10-Day Weather Forecast

Advertisements
Track Severe Weather on mobile